Terminal Aerodrome Forecast
Issued by NWS

Home | Current Version | Previous Version | Graphics & Text | Print | Product List | Glossary On
Versions: 1 2 3 4 5 6 7 8 9 10 11 12 13 14 15 16
724
FTUS43 KMPX 171133
TAFAXN
TAF
KAXN 171133Z 1712/1812 15014KT P6SM SCT025 OVC100
     FM171700 20008KT P6SM SCT025 OVC100
     FM172000 33008KT P6SM SCT015 OVC100
      TEMPO 1720/1723 -SHRA BKN015 OVC050
     FM172300 34010KT P6SM BKN020 OVC050
     FM180400 34013KT P6SM BKN100=

USA.gov is the U.S. government's official web portal to all federal, state and local government web resources and services.